sensor_id;sensor_type;location;lat;lon;timestamp;pressure;altitude;pressure_sealevel;temperature;humidity
34921;BME280;21128;50.016;20.002;2024-01-30T00:00:02;100688.54;;;-0.63;100.00
34921;BME280;21128;50.016;20.002;2024-01-30T00:02:32;100691.51;;;-0.65;100.00
34921;BME280;21128;50.016;20.002;2024-01-30T00:04:59;100690.17;;;-0.69;100.00
34921;BME280;21128;50.016;20.002;2024-01-30T00:07:25;100684.38;;;-0.72;100.00
34921;BME280;21128;50.016;20.002;2024-01-30T00:09:52;100680.45;;;-0.73;100.00
34921;BME280;21128;50.016;20.002;2024-01-30T00:12:19;100682.53;;;-0.74;100.00
34921;BME280;21128;50.016;20.002;2024-01-30T00:14:45;100676.35;;;-0.75;100.00
34921;BME280;21128;50.016;20.002;2024-01-30T00:17:12;100677.76;;;-0.77;100.00
34921;BME280;21128;50.016;20.002;2024-01-30T00:19:39;100675.58;;;-0.80;100.00
34921;BME280;21128;50.016;20.002;2024-01-30T00:22:05;100679.57;;;-0.81;100.00
34921;BME280;21128;50.016;20.002;2024-01-30T00:24:33;100681.31;;;-0.82;100.00
34921;BME280;21128;50.016;20.002;2024-01-30T00:27:00;100680.80;;;-0.84;100.00
34921;BME280;21128;50.016;20.002;2024-01-30T00:29:26;100681.52;;;-0.86;100.00
34921;BME280;21128;50.016;20.002;2024-01-30T00:31:56;100681.38;;;-0.88;100.00
34921;BME280;21128;50.016;20.002;2024-01-30T00:34:23;100679.90;;;-0.92;100.00
34921;BME280;21128;50.016;20.002;2024-01-30T00:36:50;100679.98;;;-0.97;100.00
34921;BME280;21128;50.016;20.002;2024-01-30T00:39:17;100678.65;;;-0.99;100.00
34921;BME280;21128;50.016;20.002;2024-01-30T00:41:46;100676.62;;;-1.01;100.00
34921;BME280;21128;50.016;20.002;2024-01-30T00:44:12;100676.29;;;-1.03;100.00
34921;BME280;21128;50.016;20.002;2024-01-30T00:46:39;100677.69;;;-1.04;100.00
34921;BME280;21128;50.016;20.002;2024-01-30T00:49:06;100676.21;;;-1.08;100.00
34921;BME280;21128;50.016;20.002;2024-01-30T00:51:32;100677.78;;;-1.09;100.00
34921;BME280;21128;50.016;20.002;2024-01-30T00:53:59;100675.89;;;-1.09;100.00
34921;BME280;21128;50.016;20.002;2024-01-30T00:56:26;100672.44;;;-1.09;100.00
34921;BME280;21128;50.016;20.002;2024-01-30T00:58:53;100670.91;;;-1.09;100.00
34921;BME280;21128;50.016;20.002;2024-01-30T01:01:20;100670.55;;;-1.09;100.00
34921;BME280;21128;50.016;20.002;2024-01-30T01:03:46;100672.13;;;-1.12;100.00
34921;BME280;21128;50.016;20.002;2024-01-30T01:06:14;100669.27;;;-1.15;100.00
34921;BME280;21128;50.016;20.002;2024-01-30T01:08:41;100667.77;;;-1.17;100.00
34921;BME280;21128;50.016;20.002;2024-01-30T01:11:08;100667.08;;;-1.18;100.00
34921;BME280;21128;50.016;20.002;2024-01-30T01:13:34;100660.02;;;-1.17;100.00
34921;BME280;21128;50.016;20.002;2024-01-30T01:16:01;100662.25;;;-1.16;100.00
34921;BME280;21128;50.016;20.002;2024-01-30T01:18:28;100662.59;;;-1.17;100.00
34921;BME280;21128;50.016;20.002;2024-01-30T01:20:55;100666.03;;;-1.16;100.00
34921;BME280;21128;50.016;20.002;2024-01-30T01:23:22;100670.15;;;-1.16;100.00
34921;BME280;21128;50.016;20.002;2024-01-30T01:25:48;100665.70;;;-1.18;100.00
34921;BME280;21128;50.016;20.002;2024-01-30T01:28:15;100668.46;;;-1.17;100.00
34921;BME280;21128;50.016;20.002;2024-01-30T01:30:42;100661.57;;;-1.17;100.00
34921;BME280;21128;50.016;20.002;2024-01-30T01:33:09;100661.73;;;-1.16;100.00
34921;BME280;21128;50.016;20.002;2024-01-30T01:35:39;100659.64;;;-1.15;100.00
34921;BME280;21128;50.016;20.002;2024-01-30T01:38:09;100653.10;;;-1.15;100.00
34921;BME280;21128;50.016;20.002;2024-01-30T01:40:36;100647.36;;;-1.11;100.00
34921;BME280;21128;50.016;20.002;2024-01-30T01:43:03;100645.05;;;-1.06;100.00
34921;BME280;21128;50.016;20.002;2024-01-30T01:45:31;100647.22;;;-1.02;100.00
34921;BME280;21128;50.016;20.002;2024-01-30T01:47:58;100647.71;;;-1.00;100.00
34921;BME280;21128;50.016;20.002;2024-01-30T01:50:25;100646.98;;;-0.98;100.00
34921;BME280;21128;50.016;20.002;2024-01-30T01:52:53;100646.79;;;-0.97;100.00
34921;BME280;21128;50.016;20.002;2024-01-30T01:55:21;100648.48;;;-0.96;100.00
34921;BME280;21128;50.016;20.002;2024-01-30T01:57:48;100647.95;;;-0.95;100.00
34921;BME280;21128;50.016;20.002;2024-01-30T02:00:16;100650.87;;;-0.94;100.00
34921;BME280;21128;50.016;20.002;2024-01-30T02:02:43;100645.53;;;-0.95;100.00
34921;BME280;21128;50.016;20.002;2024-01-30T02:05:12;100646.37;;;-0.94;100.00
34921;BME280;21128;50.016;20.002;2024-01-30T02:07:39;100644.80;;;-0.91;100.00
34921;BME280;21128;50.016;20.002;2024-01-30T02:10:08;100642.58;;;-0.92;100.00
34921;BME280;21128;50.016;20.002;2024-01-30T02:12:36;100640.64;;;-0.99;100.00
34921;BME280;21128;50.016;20.002;2024-01-30T02:15:03;100640.56;;;-1.05;100.00
34921;BME280;21128;50.016;20.002;2024-01-30T02:17:31;100640.08;;;-1.07;100.00
34921;BME280;21128;50.016;20.002;2024-01-30T02:19:59;100636.99;;;-1.08;100.00
34921;BME280;21128;50.016;20.002;2024-01-30T02:22:26;100634.46;;;-1.12;100.00
34921;BME280;21128;50.016;20.002;2024-01-30T02:24:52;100635.20;;;-1.14;100.00
34921;BME280;21128;50.016;20.002;2024-01-30T02:27:19;100633.34;;;-1.16;100.00
34921;BME280;21128;50.016;20.002;2024-01-30T02:29:46;100633.72;;;-1.18;100.00
34921;BME280;21128;50.016;20.002;2024-01-30T02:32:12;100628.27;;;-1.22;100.00
34921;BME280;21128;50.016;20.002;2024-01-30T02:34:39;100632.15;;;-1.28;100.00
34921;BME280;21128;50.016;20.002;2024-01-30T02:37:06;100630.02;;;-1.34;100.00
34921;BME280;21128;50.016;20.002;2024-01-30T02:39:32;100624.61;;;-1.40;100.00
34921;BME280;21128;50.016;20.002;2024-01-30T02:41:59;100623.51;;;-1.47;100.00
34921;BME280;21128;50.016;20.002;2024-01-30T02:44:29;100623.40;;;-1.51;100.00
34921;BME280;21128;50.016;20.002;2024-01-30T02:46:56;100624.65;;;-1.55;100.00
34921;BME280;21128;50.016;20.002;2024-01-30T02:49:23;100623.65;;;-1.56;100.00
34921;BME280;21128;50.016;20.002;2024-01-30T02:51:54;100622.13;;;-1.58;100.00
34921;BME280;21128;50.016;20.002;2024-01-30T02:54:21;100617.33;;;-1.58;100.00
34921;BME280;21128;50.016;20.002;2024-01-30T02:56:50;100612.69;;;-1.58;100.00
34921;BME280;21128;50.016;20.002;2024-01-30T02:59:17;100606.46;;;-1.56;100.00
34921;BME280;21128;50.016;20.002;2024-01-30T03:01:47;100607.79;;;-1.54;100.00
34921;BME280;21128;50.016;20.002;2024-01-30T03:04:17;100606.58;;;-1.52;100.00
34921;BME280;21128;50.016;20.002;2024-01-30T03:06:46;100605.70;;;-1.52;100.00
34921;BME280;21128;50.016;20.002;2024-01-30T03:09:16;100606.20;;;-1.51;100.00
34921;BME280;21128;50.016;20.002;2024-01-30T03:11:43;100604.80;;;-1.48;100.00
34921;BME280;21128;50.016;20.002;2024-01-30T03:14:09;100601.71;;;-1.48;100.00
34921;BME280;21128;50.016;20.002;2024-01-30T03:16:39;100604.88;;;-1.54;100.00
34921;BME280;21128;50.016;20.002;2024-01-30T03:19:07;100602.70;;;-1.57;100.00
34921;BME280;21128;50.016;20.002;2024-01-30T03:21:36;100603.59;;;-1.59;100.00
34921;BME280;21128;50.016;20.002;2024-01-30T03:24:03;100607.38;;;-1.59;100.00
34921;BME280;21128;50.016;20.002;2024-01-30T03:26:30;100611.66;;;-1.60;100.00
34921;BME280;21128;50.016;20.002;2024-01-30T03:28:56;100612.91;;;-1.63;100.00
34921;BME280;21128;50.016;20.002;2024-01-30T03:31:26;100610.55;;;-1.65;100.00
34921;BME280;21128;50.016;20.002;2024-01-30T03:33:55;100615.22;;;-1.67;100.00
34921;BME280;21128;50.016;20.002;2024-01-30T03:36:22;100613.02;;;-1.71;100.00
34921;BME280;21128;50.016;20.002;2024-01-30T03:38:49;100612.00;;;-1.71;100.00
34921;BME280;21128;50.016;20.002;2024-01-30T03:41:15;100612.17;;;-1.71;100.00
34921;BME280;21128;50.016;20.002;2024-01-30T03:43:50;100612.35;;;-1.71;100.00
34921;BME280;21128;50.016;20.002;2024-01-30T03:46:19;100615.84;;;-1.75;100.00
34921;BME280;21128;50.016;20.002;2024-01-30T03:48:46;100618.31;;;-1.80;100.00
34921;BME280;21128;50.016;20.002;2024-01-30T03:51:13;100616.48;;;-1.83;100.00
34921;BME280;21128;50.016;20.002;2024-01-30T03:53:42;100618.59;;;-1.87;100.00
34921;BME280;21128;50.016;20.002;2024-01-30T03:56:09;100619.38;;;-1.95;100.00
34921;BME280;21128;50.016;20.002;2024-01-30T03:58:39;100622.21;;;-2.02;100.00
34921;BME280;21128;50.016;20.002;2024-01-30T04:01:05;100618.34;;;-2.07;100.00
34921;BME280;21128;50.016;20.002;2024-01-30T04:03:32;100617.86;;;-2.11;100.00
34921;BME280;21128;50.016;20.002;2024-01-30T04:05:59;100611.55;;;-2.14;100.00
34921;BME280;21128;50.016;20.002;2024-01-30T04:08:26;100609.02;;;-2.17;100.00
34921;BME280;21128;50.016;20.002;2024-01-30T04:10:53;100610.59;;;-2.20;100.00
34921;BME280;21128;50.016;20.002;2024-01-30T04:13:19;100609.38;;;-2.20;100.00
34921;BME280;21128;50.016;20.002;2024-01-30T04:15:46;100604.06;;;-2.18;100.00
34921;BME280;21128;50.016;20.002;2024-01-30T04:18:13;100606.41;;;-2.14;100.00
34921;BME280;21128;50.016;20.002;2024-01-30T04:20:39;100612.54;;;-2.11;100.00
34921;BME280;21128;50.016;20.002;2024-01-30T04:23:06;100611.84;;;-2.10;100.00
34921;BME280;21128;50.016;20.002;2024-01-30T04:25:33;100608.75;;;-2.10;100.00
34921;BME280;21128;50.016;20.002;2024-01-30T04:27:59;100608.08;;;-2.11;100.00
34921;BME280;21128;50.016;20.002;2024-01-30T04:30:26;100603.95;;;-2.09;100.00
34921;BME280;21128;50.016;20.002;2024-01-30T04:32:53;100604.29;;;-2.09;100.00
34921;BME280;21128;50.016;20.002;2024-01-30T04:35:19;100608.76;;;-2.10;100.00
34921;BME280;21128;50.016;20.002;2024-01-30T04:37:50;100608.59;;;-2.12;100.00
34921;BME280;21128;50.016;20.002;2024-01-30T04:40:16;100615.48;;;-2.13;100.00
34921;BME280;21128;50.016;20.002;2024-01-30T04:42:43;100614.94;;;-2.11;100.00
34921;BME280;21128;50.016;20.002;2024-01-30T04:45:10;100618.88;;;-2.08;100.00
34921;BME280;21128;50.016;20.002;2024-01-30T04:47:36;100620.09;;;-2.10;100.00
34921;BME280;21128;50.016;20.002;2024-01-30T04:50:03;100624.55;;;-2.09;100.00
34921;BME280;21128;50.016;20.002;2024-01-30T04:52:31;100623.55;;;-2.12;100.00
34921;BME280;21128;50.016;20.002;2024-01-30T04:54:58;100627.67;;;-2.13;100.00
34921;BME280;21128;50.016;20.002;2024-01-30T04:57:25;100624.76;;;-2.13;100.00
34921;BME280;21128;50.016;20.002;2024-01-30T04:59:51;100622.86;;;-2.12;100.00
34921;BME280;21128;50.016;20.002;2024-01-30T05:02:18;100626.66;;;-2.13;100.00
34921;BME280;21128;50.016;20.002;2024-01-30T05:04:45;100623.95;;;-2.16;100.00
34921;BME280;21128;50.016;20.002;2024-01-30T05:07:12;100623.11;;;-2.19;100.00
34921;BME280;21128;50.016;20.002;2024-01-30T05:09:39;100621.92;;;-2.20;100.00
34921;BME280;21128;50.016;20.002;2024-01-30T05:12:07;100622.83;;;-2.23;100.00
34921;BME280;21128;50.016;20.002;2024-01-30T05:14:33;100619.40;;;-2.23;100.00
34921;BME280;21128;50.016;20.002;2024-01-30T05:17:00;100621.11;;;-2.23;100.00
34921;BME280;21128;50.016;20.002;2024-01-30T05:19:27;100621.81;;;-2.24;100.00
34921;BME280;21128;50.016;20.002;2024-01-30T05:21:53;100626.96;;;-2.24;100.00
34921;BME280;21128;50.016;20.002;2024-01-30T05:24:20;100628.31;;;-2.23;100.00
34921;BME280;21128;50.016;20.002;2024-01-30T05:26:47;100628.48;;;-2.22;100.00
34921;BME280;21128;50.016;20.002;2024-01-30T05:29:14;100623.48;;;-2.21;100.00
34921;BME280;21128;50.016;20.002;2024-01-30T05:31:41;100620.72;;;-2.20;100.00
34921;BME280;21128;50.016;20.002;2024-01-30T05:34:08;100622.07;;;-2.17;100.00
34921;BME280;21128;50.016;20.002;2024-01-30T05:36:35;100623.77;;;-2.16;100.00
34921;BME280;21128;50.016;20.002;2024-01-30T05:39:02;100619.15;;;-2.16;100.00
34921;BME280;21128;50.016;20.002;2024-01-30T05:41:29;100621.55;;;-2.17;100.00
34921;BME280;21128;50.016;20.002;2024-01-30T05:43:55;100619.52;;;-2.19;100.00
34921;BME280;21128;50.016;20.002;2024-01-30T05:46:22;100621.05;;;-2.19;100.00
34921;BME280;21128;50.016;20.002;2024-01-30T05:48:49;100617.79;;;-2.18;100.00
34921;BME280;21128;50.016;20.002;2024-01-30T05:51:15;100623.94;;;-2.15;100.00
34921;BME280;21128;50.016;20.002;2024-01-30T05:53:42;100624.59;;;-2.13;100.00
34921;BME280;21128;50.016;20.002;2024-01-30T05:56:09;100625.44;;;-2.12;100.00
34921;BME280;21128;50.016;20.002;2024-01-30T05:58:36;100625.41;;;-2.11;100.00
34921;BME280;21128;50.016;20.002;2024-01-30T06:01:07;100626.28;;;-2.12;100.00
34921;BME280;21128;50.016;20.002;2024-01-30T06:03:35;100629.05;;;-2.12;100.00
34921;BME280;21128;50.016;20.002;2024-01-30T06:06:02;100631.64;;;-2.13;100.00
34921;BME280;21128;50.016;20.002;2024-01-30T06:08:29;100632.14;;;-2.13;100.00
34921;BME280;21128;50.016;20.002;2024-01-30T06:10:56;100624.58;;;-2.12;100.00
34921;BME280;21128;50.016;20.002;2024-01-30T06:13:22;100619.27;;;-2.13;100.00
34921;BME280;21128;50.016;20.002;2024-01-30T06:15:49;100622.23;;;-2.16;100.00
34921;BME280;21128;50.016;20.002;2024-01-30T06:18:15;100626.87;;;-2.16;100.00
34921;BME280;21128;50.016;20.002;2024-01-30T06:20:42;100629.11;;;-2.17;100.00
34921;BME280;21128;50.016;20.002;2024-01-30T06:23:09;100629.65;;;-2.19;100.00
34921;BME280;21128;50.016;20.002;2024-01-30T06:25:36;100632.09;;;-2.22;100.00
34921;BME280;21128;50.016;20.002;2024-01-30T06:28:03;100626.63;;;-2.25;100.00
34921;BME280;21128;50.016;20.002;2024-01-30T06:30:30;100627.84;;;-2.24;100.00
34921;BME280;21128;50.016;20.002;2024-01-30T06:32:57;100627.50;;;-2.27;100.00
34921;BME280;21128;50.016;20.002;2024-01-30T06:35:23;100630.08;;;-2.27;100.00
34921;BME280;21128;50.016;20.002;2024-01-30T06:37:50;100627.61;;;-2.22;100.00
34921;BME280;21128;50.016;20.002;2024-01-30T06:40:17;100626.12;;;-2.11;100.00
34921;BME280;21128;50.016;20.002;2024-01-30T06:42:43;100625.75;;;-1.96;100.00
34921;BME280;21128;50.016;20.002;2024-01-30T06:45:10;100623.73;;;-1.73;100.00
34921;BME280;21128;50.016;20.002;2024-01-30T06:47:37;100621.95;;;-1.25;100.00
34921;BME280;21128;50.016;20.002;2024-01-30T06:50:04;100620.36;;;-0.63;100.00
34921;BME280;21128;50.016;20.002;2024-01-30T06:52:31;100619.54;;;-0.03;100.00
34921;BME280;21128;50.016;20.002;2024-01-30T06:54:57;100615.30;;;0.55;100.00
34921;BME280;21128;50.016;20.002;2024-01-30T06:57:24;100616.02;;;1.04;100.00
34921;BME280;21128;50.016;20.002;2024-01-30T06:59:51;100619.15;;;1.36;100.00
34921;BME280;21128;50.016;20.002;2024-01-30T07:02:17;100617.19;;;1.70;100.00
34921;BME280;21128;50.016;20.002;2024-01-30T07:04:44;100617.36;;;2.12;100.00
34921;BME280;21128;50.016;20.002;2024-01-30T07:07:11;100618.84;;;2.59;100.00
34921;BME280;21128;50.016;20.002;2024-01-30T07:09:39;100617.85;;;2.95;100.00
34921;BME280;21128;50.016;20.002;2024-01-30T07:12:06;100619.43;;;3.31;100.00
34921;BME280;21128;50.016;20.002;2024-01-30T07:14:34;100619.40;;;3.75;100.00
34921;BME280;21128;50.016;20.002;2024-01-30T07:17:01;100616.58;;;4.18;100.00
34921;BME280;21128;50.016;20.002;2024-01-30T07:19:28;100613.94;;;4.51;100.00
34921;BME280;21128;50.016;20.002;2024-01-30T07:21:55;100614.79;;;4.77;100.00
34921;BME280;21128;50.016;20.002;2024-01-30T07:24:21;100611.16;;;4.98;100.00
34921;BME280;21128;50.016;20.002;2024-01-30T07:26:48;100622.42;;;4.99;100.00
34921;BME280;21128;50.016;20.002;2024-01-30T07:29:14;100621.71;;;5.03;100.00
34921;BME280;21128;50.016;20.002;2024-01-30T07:31:41;100619.05;;;5.04;100.00
34921;BME280;21128;50.016;20.002;2024-01-30T07:34:08;100619.77;;;4.83;100.00
34921;BME280;21128;50.016;20.002;2024-01-30T07:36:35;100624.63;;;4.48;100.00
34921;BME280;21128;50.016;20.002;2024-01-30T07:39:02;100626.64;;;4.45;100.00
34921;BME280;21128;50.016;20.002;2024-01-30T07:41:29;100623.95;;;4.69;100.00
34921;BME280;21128;50.016;20.002;2024-01-30T07:44:01;100626.88;;;4.92;100.00
34921;BME280;21128;50.016;20.002;2024-01-30T07:46:27;100620.60;;;5.17;100.00
34921;BME280;21128;50.016;20.002;2024-01-30T07:48:54;100621.99;;;5.45;100.00
34921;BME280;21128;50.016;20.002;2024-01-30T07:51:22;100618.56;;;5.80;100.00
34921;BME280;21128;50.016;20.002;2024-01-30T07:53:49;100616.45;;;6.12;100.00
34921;BME280;21128;50.016;20.002;2024-01-30T07:56:15;100614.94;;;6.59;100.00
34921;BME280;21128;50.016;20.002;2024-01-30T07:58:42;100612.75;;;6.89;100.00
34921;BME280;21128;50.016;20.002;2024-01-30T08:01:09;100616.25;;;7.31;100.00
34921;BME280;21128;50.016;20.002;2024-01-30T08:03:36;100616.88;;;7.79;100.00
34921;BME280;21128;50.016;20.002;2024-01-30T08:06:03;100613.27;;;8.20;100.00
34921;BME280;21128;50.016;20.002;2024-01-30T08:08:30;100612.94;;;8.46;100.00
34921;BME280;21128;50.016;20.002;2024-01-30T08:10:57;100617.94;;;8.65;100.00
34921;BME280;21128;50.016;20.002;2024-01-30T08:13:24;100616.70;;;8.99;100.00
34921;BME280;21128;50.016;20.002;2024-01-30T08:15:50;100621.43;;;9.29;100.00
34921;BME280;21128;50.016;20.002;2024-01-30T08:18:17;100624.35;;;9.56;100.00
34921;BME280;21128;50.016;20.002;2024-01-30T08:20:44;100626.10;;;9.79;100.00
34921;BME280;21128;50.016;20.002;2024-01-30T08:23:10;100626.01;;;9.98;100.00
34921;BME280;21128;50.016;20.002;2024-01-30T08:25:37;100627.09;;;10.17;99.78
34921;BME280;21128;50.016;20.002;2024-01-30T08:28:04;100623.67;;;10.30;99.90
34921;BME280;21128;50.016;20.002;2024-01-30T08:30:31;100617.42;;;10.65;99.74
34921;BME280;21128;50.016;20.002;2024-01-30T08:32:57;100615.33;;;10.96;98.98
34921;BME280;21128;50.016;20.002;2024-01-30T08:35:24;100617.84;;;11.22;98.00
34921;BME280;21128;50.016;20.002;2024-01-30T08:37:52;100617.08;;;11.43;97.37
34921;BME280;21128;50.016;20.002;2024-01-30T08:40:20;100619.58;;;11.56;96.04
34921;BME280;21128;50.016;20.002;2024-01-30T08:42:47;100619.44;;;11.58;94.92
34921;BME280;21128;50.016;20.002;2024-01-30T08:45:14;100624.94;;;11.52;93.20
34921;BME280;21128;50.016;20.002;2024-01-30T08:47:40;100625.41;;;11.22;91.82
34921;BME280;21128;50.016;20.002;2024-01-30T08:50:07;100624.72;;;11.08;92.20
34921;BME280;21128;50.016;20.002;2024-01-30T08:52:34;100619.14;;;11.15;92.05
34921;BME280;21128;50.016;20.002;2024-01-30T08:55:01;100617.80;;;11.30;91.50
34921;BME280;21128;50.016;20.002;2024-01-30T08:57:28;100620.41;;;11.44;91.85
34921;BME280;21128;50.016;20.002;2024-01-30T08:59:55;100617.36;;;11.68;91.05
34921;BME280;21128;50.016;20.002;2024-01-30T09:02:22;100619.41;;;11.79;90.20
34921;BME280;21128;50.016;20.002;2024-01-30T09:04:48;100617.38;;;11.98;90.26
34921;BME280;21128;50.016;20.002;2024-01-30T09:07:15;100609.64;;;12.16;89.59
34921;BME280;21128;50.016;20.002;2024-01-30T09:09:42;100618.39;;;12.38;89.20
34921;BME280;21128;50.016;20.002;2024-01-30T09:12:09;100620.48;;;12.38;80.84
34921;BME280;21128;50.016;20.002;2024-01-30T09:14:39;100621.91;;;12.35;77.63
34921;BME280;21128;50.016;20.002;2024-01-30T09:17:06;100622.49;;;12.45;76.97
34921;BME280;21128;50.016;20.002;2024-01-30T09:19:33;100622.98;;;12.61;75.29
34921;BME280;21128;50.016;20.002;2024-01-30T09:22:00;100625.95;;;12.45;71.63
34921;BME280;21128;50.016;20.002;2024-01-30T09:24:27;100618.96;;;12.20;69.30
34921;BME280;21128;50.016;20.002;2024-01-30T09:26:54;100615.01;;;12.36;68.73
34921;BME280;21128;50.016;20.002;2024-01-30T09:29:21;100612.42;;;12.59;66.92
34921;BME280;21128;50.016;20.002;2024-01-30T09:31:48;100600.96;;;12.65;62.16
34921;BME280;21128;50.016;20.002;2024-01-30T09:34:14;100600.25;;;12.50;61.68
34921;BME280;21128;50.016;20.002;2024-01-30T09:36:41;100599.83;;;12.40;60.88
34921;BME280;21128;50.016;20.002;2024-01-30T09:39:08;100597.92;;;12.05;60.15
34921;BME280;21128;50.016;20.002;2024-01-30T09:42:02;100597.69;;;11.91;60.29
34921;BME280;21128;50.016;20.002;2024-01-30T09:44:34;100599.70;;;12.12;60.42
34921;BME280;21128;50.016;20.002;2024-01-30T09:47:03;100597.66;;;12.16;59.91
34921;BME280;21128;50.016;20.002;2024-01-30T09:49:32;100596.11;;;12.10;59.67
34921;BME280;21128;50.016;20.002;2024-01-30T09:52:03;100594.55;;;12.32;59.91
34921;BME280;21128;50.016;20.002;2024-01-30T09:54:31;100593.73;;;12.41;59.36
34921;BME280;21128;50.016;20.002;2024-01-30T09:56:58;100588.42;;;12.73;59.78
34921;BME280;21128;50.016;20.002;2024-01-30T09:59:25;100587.29;;;12.83;58.68
34921;BME280;21128;50.016;20.002;2024-01-30T10:01:52;100590.14;;;12.81;58.42
34921;BME280;21128;50.016;20.002;2024-01-30T10:04:19;100584.66;;;12.92;58.26
34921;BME280;21128;50.016;20.002;2024-01-30T10:06:46;100575.44;;;12.96;57.69
34921;BME280;21128;50.016;20.002;2024-01-30T10:09:14;100574.99;;;12.92;57.69
34921;BME280;21128;50.016;20.002;2024-01-30T10:11:41;100573.32;;;12.96;57.38
34921;BME280;21128;50.016;20.002;2024-01-30T10:14:07;100574.05;;;12.77;56.93
34921;BME280;21128;50.016;20.002;2024-01-30T10:16:34;100572.71;;;12.78;56.99
34921;BME280;21128;50.016;20.002;2024-01-30T10:19:01;100561.11;;;12.64;56.85
34921;BME280;21128;50.016;20.002;2024-01-30T10:21:30;100561.11;;;11.96;55.76
34921;BME280;21128;50.016;20.002;2024-01-30T10:23:56;100563.17;;;10.89;55.00
34921;BME280;21128;50.016;20.002;2024-01-30T10:26:23;100566.48;;;9.75;55.15
34921;BME280;21128;50.016;20.002;2024-01-30T10:28:50;100567.27;;;8.80;55.46
34921;BME280;21128;50.016;20.002;2024-01-30T10:31:18;100565.40;;;8.01;56.34
34921;BME280;21128;50.016;20.002;2024-01-30T10:33:47;100564.36;;;7.43;56.81
34921;BME280;21128;50.016;20.002;2024-01-30T10:36:14;100560.95;;;6.94;57.54
34921;BME280;21128;50.016;20.002;2024-01-30T10:38:42;100555.39;;;6.59;58.26
34921;BME280;21128;50.016;20.002;2024-01-30T10:41:11;100553.81;;;6.34;58.68
34921;BME280;21128;50.016;20.002;2024-01-30T10:43:45;100549.09;;;6.09;59.21
34921;BME280;21128;50.016;20.002;2024-01-30T10:46:19;100543.62;;;5.99;59.95
34921;BME280;21128;50.016;20.002;2024-01-30T10:48:50;100543.05;;;6.01;60.27
34921;BME280;21128;50.016;20.002;2024-01-30T10:51:18;100535.82;;;5.99;60.36
34921;BME280;21128;50.016;20.002;2024-01-30T10:53:46;100538.36;;;5.93;60.64
34921;BME280;21128;50.016;20.002;2024-01-30T10:56:13;100532.81;;;5.92;61.05
34921;BME280;21128;50.016;20.002;2024-01-30T10:58:42;100528.58;;;5.89;61.28
34921;BME280;21128;50.016;20.002;2024-01-30T11:01:09;100528.39;;;5.82;61.33
34921;BME280;21128;50.016;20.002;2024-01-30T11:03:37;100523.59;;;5.77;61.35
34921;BME280;21128;50.016;20.002;2024-01-30T11:06:04;100517.89;;;5.72;61.53
34921;BME280;21128;50.016;20.002;2024-01-30T11:08:32;100515.63;;;5.69;61.66
34921;BME280;21128;50.016;20.002;2024-01-30T11:10:59;100515.92;;;5.66;61.73
34921;BME280;21128;50.016;20.002;2024-01-30T11:13:27;100512.67;;;5.65;61.68
34921;BME280;21128;50.016;20.002;2024-01-30T11:15:55;100511.97;;;5.65;61.98
34921;BME280;21128;50.016;20.002;2024-01-30T11:18:23;100511.73;;;5.74;62.21
34921;BME280;21128;50.016;20.002;2024-01-30T11:20:51;100505.38;;;5.83;62.24
34921;BME280;21128;50.016;20.002;2024-01-30T11:23:18;100506.36;;;5.92;62.13
34921;BME280;21128;50.016;20.002;2024-01-30T11:25:44;100503.42;;;5.96;62.05
34921;BME280;21128;50.016;20.002;2024-01-30T11:28:15;100497.48;;;5.96;62.42
34921;BME280;21128;50.016;20.002;2024-01-30T11:30:42;100498.27;;;6.02;62.55
34921;BME280;21128;50.016;20.002;2024-01-30T11:33:11;100495.15;;;6.05;62.53
34921;BME280;21128;50.016;20.002;2024-01-30T11:35:42;100490.90;;;6.07;62.81
34921;BME280;21128;50.016;20.002;2024-01-30T11:38:13;100491.41;;;6.07;62.35
34921;BME280;21128;50.016;20.002;2024-01-30T11:40:40;100487.18;;;6.08;62.79
34921;BME280;21128;50.016;20.002;2024-01-30T11:43:08;100483.66;;;6.16;63.03
34921;BME280;21128;50.016;20.002;2024-01-30T11:45:36;100479.35;;;6.26;62.80
34921;BME280;21128;50.016;20.002;2024-01-30T11:48:04;100480.79;;;6.33;63.03
34921;BME280;21128;50.016;20.002;2024-01-30T11:50:34;100482.36;;;6.36;62.87
34921;BME280;21128;50.016;20.002;2024-01-30T11:53:02;100482.27;;;6.34;62.92
34921;BME280;21128;50.016;20.002;2024-01-30T11:55:29;100482.04;;;6.35;62.88
34921;BME280;21128;50.016;20.002;2024-01-30T11:58:00;100482.13;;;6.40;62.61
34921;BME280;21128;50.016;20.002;2024-01-30T12:00:27;100476.52;;;6.44;62.68
34921;BME280;21128;50.016;20.002;2024-01-30T12:02:54;100475.71;;;6.51;62.92
34921;BME280;21128;50.016;20.002;2024-01-30T12:05:26;100474.05;;;6.56;62.92
34921;BME280;21128;50.016;20.002;2024-01-30T12:07:53;100471.65;;;6.58;62.89
34921;BME280;21128;50.016;20.002;2024-01-30T12:10:21;100473.39;;;6.59;62.43
34921;BME280;21128;50.016;20.002;2024-01-30T12:12:49;100471.21;;;6.57;62.38
34921;BME280;21128;50.016;20.002;2024-01-30T12:15:18;100467.39;;;6.57;62.52
34921;BME280;21128;50.016;20.002;2024-01-30T12:17:45;100464.53;;;6.61;62.48
34921;BME280;21128;50.016;20.002;2024-01-30T12:20:13;100458.80;;;6.68;62.43
34921;BME280;21128;50.016;20.002;2024-01-30T12:27:37;100450.23;;;6.89;62.54
34921;BME280;21128;50.016;20.002;2024-01-30T12:32:35;100449.69;;;7.00;62.81
34921;BME280;21128;50.016;20.002;2024-01-30T12:35:03;100452.01;;;7.02;62.60
34921;BME280;21128;50.016;20.002;2024-01-30T12:37:30;100451.46;;;7.06;62.85
34921;BME280;21128;50.016;20.002;2024-01-30T12:39:57;100452.10;;;7.10;62.95
34921;BME280;21128;50.016;20.002;2024-01-30T12:42:27;100452.63;;;7.13;62.80